Time;durP1;ratioP1;P1;durP2;ratioP2;P2;SDS_P1;SDS_P2;PMS_P1;PMS_P2;Temp;Humidity;BMP_temperature;BMP_pressure;BME280_temperature;BME280_humidity;BME280_pressure;Samples;Min_cycle;Max_cycle;Signal;HPM_P1;HPM_P2
2024/02/11 00:00:24;;;;;;;44.53;42.23;;;22.10;59.70;;;;;;5064983;28;21033;-61
2024/02/11 00:02:52;;;;;;;45.27;43.13;;;22.10;59.80;;;;;;5062707;28;20474;-62
2024/02/11 00:05:19;;;;;;;46.47;44.20;;;22.10;60.40;;;;;;5061410;28;20440;-62
2024/02/11 00:07:46;;;;;;;44.27;42.37;;;22.10;59.80;;;;;;5061376;28;20498;-62
2024/02/11 00:10:14;;;;;;;45.77;43.77;;;22.10;59.90;;;;;;5064921;28;20507;-62
2024/02/11 00:12:42;;;;;;;45.57;43.57;;;22.00;59.90;;;;;;5064058;28;20787;-62
2024/02/11 00:15:10;;;;;;;44.67;42.47;;;22.00;59.80;;;;;;5061355;28;20506;-62
2024/02/11 00:17:37;;;;;;;45.00;43.00;;;22.00;59.90;;;;;;5061557;28;20958;-62
2024/02/11 00:20:06;;;;;;;45.37;43.40;;;22.00;60.00;;;;;;5064513;28;20946;-63
2024/02/11 00:22:34;;;;;;;45.13;43.07;;;21.90;59.90;;;;;;5064730;28;20443;-62
2024/02/11 00:25:02;;;;;;;43.40;41.40;;;22.00;60.10;;;;;;5053113;28;20450;-62
2024/02/11 00:27:29;;;;;;;46.43;44.33;;;21.90;60.00;;;;;;5061131;28;20895;-63
2024/02/11 00:29:58;;;;;;;46.70;44.70;;;21.90;60.10;;;;;;5063693;28;20470;-63
2024/02/11 00:32:25;;;;;;;46.87;44.60;;;21.90;60.10;;;;;;5061455;28;20526;-62
2024/02/11 00:34:57;;;;;;;45.17;43.13;;;21.90;60.10;;;;;;5061880;28;20477;-62
2024/02/11 00:37:29;;;;;;;45.97;43.87;;;21.80;60.10;;;;;;5060857;28;20987;-65
2024/02/11 00:39:56;;;;;;;44.90;42.90;;;21.80;60.10;;;;;;5063439;28;20539;-62
2024/02/11 00:42:27;;;;;;;46.13;44.03;;;21.80;60.10;;;;;;5064246;28;20463;-64
2024/02/11 00:44:54;;;;;;;43.30;41.40;;;21.80;60.30;;;;;;5061395;28;20449;-62
2024/02/11 00:47:22;;;;;;;44.33;42.33;;;21.80;60.30;;;;;;5060542;28;21014;-63
2024/02/11 00:49:49;;;;;;;43.70;41.80;;;21.80;60.40;;;;;;5062274;28;20444;-63
2024/02/11 00:52:16;;;;;;;45.07;43.07;;;21.80;60.60;;;;;;5066069;28;20507;-62
2024/02/11 00:54:43;;;;;;;43.27;41.37;;;21.70;60.60;;;;;;5061319;28;20532;-62
2024/02/11 00:57:10;;;;;;;45.90;43.90;;;21.70;60.60;;;;;;5062802;28;20962;-62
2024/02/11 00:59:38;;;;;;;44.87;42.87;;;21.70;60.60;;;;;;5060936;28;20475;-63
2024/02/11 01:02:05;;;;;;;44.90;43.10;;;21.70;60.70;;;;;;5063753;28;20467;-62
2024/02/11 01:04:38;;;;;;;52.10;49.80;;;21.70;60.70;;;;;;5063671;28;20471;-62
2024/02/11 01:07:05;;;;;;;52.37;50.07;;;21.70;60.80;;;;;;5060390;28;20487;-62
2024/02/11 01:09:32;;;;;;;51.07;48.87;;;21.70;60.80;;;;;;5060168;28;20444;-62
2024/02/11 01:11:59;;;;;;;50.80;48.63;;;21.60;60.70;;;;;;5063156;28;21032;-63
2024/02/11 01:14:26;;;;;;;52.60;50.30;;;21.60;60.80;;;;;;5063470;28;20501;-62
2024/02/11 01:16:55;;;;;;;50.23;48.13;;;21.60;60.90;;;;;;5061069;28;20463;-64
2024/02/11 01:19:21;;;;;;;52.90;50.60;;;21.60;60.90;;;;;;5059978;28;20441;-64
2024/02/11 01:21:50;;;;;;;52.87;50.67;;;21.60;60.90;;;;;;5061566;28;20852;-62
2024/02/11 01:24:18;;;;;;;52.43;50.23;;;21.60;61.00;;;;;;5063338;28;20439;-63
2024/02/11 01:26:44;;;;;;;52.87;50.67;;;21.60;61.00;;;;;;5062168;28;20497;-63
2024/02/11 01:29:11;;;;;;;53.40;51.10;;;21.50;61.00;;;;;;5059915;28;20472;-65
2024/02/11 01:31:38;;;;;;;43.57;41.77;;;21.50;61.00;;;;;;5059813;28;20840;-62
2024/02/11 01:34:05;;;;;;;45.73;43.73;;;21.50;61.00;;;;;;5063336;28;20463;-62
2024/02/11 01:36:32;;;;;;;46.23;44.23;;;21.50;61.00;;;;;;5063181;28;20460;-62
2024/02/11 01:39:00;;;;;;;44.37;42.57;;;21.40;60.90;;;;;;5060231;28;20436;-62
2024/02/11 01:41:27;;;;;;;45.33;43.43;;;21.50;61.10;;;;;;5059792;28;20468;-62
2024/02/11 01:43:56;;;;;;;46.37;44.47;;;21.50;61.10;;;;;;5061884;28;20443;-63
2024/02/11 01:46:23;;;;;;;45.73;43.83;;;21.50;61.10;;;;;;5056665;28;20521;-63
2024/02/11 01:48:50;;;;;;;49.10;47.10;;;21.40;61.10;;;;;;5061515;28;20480;-64
2024/02/11 01:51:18;;;;;;;45.03;43.03;;;21.40;61.10;;;;;;5063088;28;20502;-63
2024/02/11 01:53:49;;;;;;;45.43;43.53;;;21.40;61.10;;;;;;5062027;28;20984;-63
2024/02/11 01:56:20;;;;;;;45.53;43.60;;;21.40;61.20;;;;;;5059260;28;20475;-62
2024/02/11 01:58:48;;;;;;;45.40;43.50;;;21.40;61.30;;;;;;5060764;28;20452;-62
2024/02/11 02:01:17;;;;;;;44.60;42.80;;;21.40;61.30;;;;;;5063054;28;20516;-62
2024/02/11 02:03:45;;;;;;;46.00;44.17;;;21.40;61.30;;;;;;5062200;28;20447;-63
2024/02/11 02:06:12;;;;;;;45.40;43.50;;;21.40;61.30;;;;;;5059385;28;20490;-65
2024/02/11 02:08:40;;;;;;;43.80;42.00;;;21.30;61.20;;;;;;5059478;28;20476;-63
2024/02/11 02:11:07;;;;;;;46.67;44.47;;;21.30;61.30;;;;;;5062776;28;20471;-64
2024/02/11 02:13:35;;;;;;;44.53;42.63;;;21.30;61.30;;;;;;5062899;28;20444;-62
2024/02/11 02:16:02;;;;;;;47.63;45.63;;;21.30;61.30;;;;;;5059117;28;21206;-62
2024/02/11 02:18:34;;;;;;;44.80;42.80;;;21.30;61.30;;;;;;5059577;28;20946;-62
2024/02/11 02:21:01;;;;;;;47.27;45.10;;;21.30;61.30;;;;;;5062353;28;20489;-63
2024/02/11 02:23:29;;;;;;;47.70;45.80;;;21.30;61.40;;;;;;5062646;28;20817;-63
2024/02/11 02:25:56;;;;;;;46.77;44.87;;;21.30;61.40;;;;;;5060204;28;20474;-62
2024/02/11 02:28:23;;;;;;;44.50;42.60;;;21.30;61.50;;;;;;5059533;28;20464;-63
2024/02/11 02:30:50;;;;;;;44.07;42.27;;;21.30;61.40;;;;;;5060541;28;20507;-62
2024/02/11 02:33:17;;;;;;;43.53;41.73;;;21.20;61.50;;;;;;5062544;28;20482;-63
2024/02/11 02:35:44;;;;;;;45.40;43.50;;;21.30;61.50;;;;;;5062187;28;20467;-62
2024/02/11 02:38:11;;;;;;;45.47;43.57;;;21.20;61.50;;;;;;5059254;28;20503;-64
2024/02/11 02:40:39;;;;;;;44.50;42.70;;;21.20;61.50;;;;;;5059221;28;20468;-63
2024/02/11 02:43:10;;;;;;;44.90;43.10;;;21.20;61.50;;;;;;5057721;28;20480;-62
2024/02/11 02:45:37;;;;;;;45.20;43.30;;;21.20;61.50;;;;;;5059329;28;20436;-62
2024/02/11 02:48:05;;;;;;;44.97;43.00;;;21.20;61.60;;;;;;5062270;28;20501;-62
2024/02/11 02:50:32;;;;;;;45.87;43.80;;;21.20;61.60;;;;;;5062545;28;20981;-62
2024/02/11 02:52:59;;;;;;;46.63;44.63;;;21.20;61.60;;;;;;5059484;28;20506;-68
2024/02/11 02:55:26;;;;;;;44.17;42.37;;;21.20;61.60;;;;;;5059282;28;20472;-63
2024/02/11 02:57:54;;;;;;;44.20;42.40;;;21.20;61.60;;;;;;5060552;28;20994;-62
2024/02/11 03:00:22;;;;;;;44.97;43.03;;;21.20;61.70;;;;;;5062475;28;20443;-65
2024/02/11 03:02:52;;;;;;;45.10;43.20;;;21.20;61.60;;;;;;5054632;28;20436;-63
2024/02/11 03:05:22;;;;;;;46.07;44.17;;;21.10;61.50;;;;;;5062602;28;20447;-62
2024/02/11 03:07:52;;;;;;;47.13;45.13;;;21.10;61.50;;;;;;5061228;28;20498;-62
2024/02/11 03:10:21;;;;;;;45.73;43.83;;;21.10;61.50;;;;;;5061616;28;20939;-63
2024/02/11 03:12:48;;;;;;;46.60;44.70;;;21.10;61.60;;;;;;5064233;28;20507;-63
2024/02/11 03:15:16;;;;;;;45.30;43.40;;;21.10;61.60;;;;;;5062695;28;20448;-62
2024/02/11 03:17:44;;;;;;;47.50;45.40;;;21.10;61.70;;;;;;5062503;28;20979;-62
2024/02/11 03:20:14;;;;;;;44.20;42.40;;;21.10;61.70;;;;;;5065719;28;20454;-62
2024/02/11 03:22:41;;;;;;;44.10;42.20;;;21.10;61.60;;;;;;5066102;28;20907;-63
2024/02/11 03:25:09;;;;;;;44.50;42.53;;;21.10;61.70;;;;;;5054350;28;20432;-63
2024/02/11 03:27:38;;;;;;;46.00;44.10;;;21.10;61.70;;;;;;5062144;28;20456;-63
2024/02/11 03:30:07;;;;;;;52.03;49.73;;;21.10;61.60;;;;;;5065298;28;20443;-62
2024/02/11 03:32:36;;;;;;;44.57;42.60;;;21.10;61.70;;;;;;5065292;28;20557;-62
2024/02/11 03:35:04;;;;;;;43.50;41.70;;;21.10;61.70;;;;;;5062590;28;20468;-62
2024/02/11 03:37:33;;;;;;;46.30;44.40;;;21.10;61.80;;;;;;5061992;28;20464;-62
2024/02/11 03:40:00;;;;;;;47.97;45.97;;;21.00;61.70;;;;;;5064442;28;20476;-63
2024/02/11 03:42:27;;;;;;;47.63;45.63;;;21.00;61.80;;;;;;5065151;28;20858;-62
2024/02/11 03:44:54;;;;;;;46.37;44.37;;;21.00;61.70;;;;;;5063679;28;20493;-64
2024/02/11 03:47:22;;;;;;;45.40;43.50;;;21.00;61.80;;;;;;5061740;28;20499;-63
2024/02/11 03:49:52;;;;;;;44.73;42.83;;;21.00;61.80;;;;;;5062304;28;20444;-63
2024/02/11 03:52:19;;;;;;;45.00;43.10;;;21.00;61.70;;;;;;5065373;28;20503;-63
2024/02/11 03:54:46;;;;;;;44.70;42.90;;;21.00;61.80;;;;;;5064544;28;20478;-62
2024/02/11 03:57:13;;;;;;;46.83;44.93;;;21.00;61.80;;;;;;5061631;28;20484;-62
2024/02/11 03:59:40;;;;;;;44.90;43.00;;;21.00;61.80;;;;;;5061586;28;20463;-63
2024/02/11 04:02:07;;;;;;;45.13;43.17;;;21.00;61.80;;;;;;5064902;28;20831;-62
2024/02/11 04:04:34;;;;;;;45.97;43.97;;;21.00;61.80;;;;;;5065012;28;20428;-62
2024/02/11 04:07:02;;;;;;;45.33;43.43;;;21.00;61.80;;;;;;5062351;28;20495;-63
2024/02/11 04:09:29;;;;;;;45.57;43.57;;;21.00;61.80;;;;;;5062161;28;20461;-64
2024/02/11 04:11:58;;;;;;;48.63;46.63;;;20.90;61.70;;;;;;5062067;28;20486;-63
2024/02/11 04:14:25;;;;;;;47.63;45.73;;;20.90;61.80;;;;;;5065001;28;20471;-65
2024/02/11 04:16:55;;;;;;;47.00;45.07;;;20.90;61.80;;;;;;5063447;28;20467;-63
2024/02/11 04:19:22;;;;;;;47.77;45.77;;;20.90;61.80;;;;;;5061179;28;20502;-63
2024/02/11 04:21:49;;;;;;;48.27;46.30;;;20.90;61.80;;;;;;5061573;28;20444;-64
2024/02/11 04:24:21;;;;;;;46.47;44.57;;;20.90;61.80;;;;;;5064501;28;20443;-63
2024/02/11 04:26:51;;;;;;;47.07;45.13;;;20.90;61.80;;;;;;5063856;28;20467;-63
2024/02/11 04:29:19;;;;;;;47.07;44.97;;;20.90;61.80;;;;;;5067918;22;20509;-61
2024/02/11 04:31:45;;;;;;;45.90;43.90;;;20.90;61.80;;;;;;5052681;28;20555;-61
2024/02/11 04:34:12;;;;;;;45.00;43.10;;;20.90;61.90;;;;;;5052931;28;20472;-60
2024/02/11 04:36:40;;;;;;;44.53;42.63;;;20.90;61.80;;;;;;5053117;28;20950;-62
2024/02/11 04:39:08;;;;;;;45.87;43.97;;;20.90;61.80;;;;;;5049582;28;20520;-61
2024/02/11 04:41:37;;;;;;;45.87;43.87;;;20.90;61.80;;;;;;5041138;28;20865;-61
2024/02/11 04:44:05;;;;;;;47.03;44.93;;;20.90;61.80;;;;;;5043773;28;20468;-61
2024/02/11 04:46:32;;;;;;;43.30;41.50;;;20.90;61.80;;;;;;5044281;28;20490;-60
2024/02/11 04:48:59;;;;;;;44.77;42.87;;;20.80;61.70;;;;;;5042276;28;20963;-62
2024/02/11 04:51:28;;;;;;;47.50;45.50;;;20.90;61.80;;;;;;5040700;28;20476;-62
2024/02/11 04:53:57;;;;;;;45.90;44.00;;;20.90;61.80;;;;;;5048994;28;20445;-62
2024/02/11 04:56:24;;;;;;;48.10;46.10;;;20.80;61.70;;;;;;5040955;28;20453;-61
2024/02/11 04:58:53;;;;;;;48.90;46.90;;;20.90;61.80;;;;;;5041425;28;20544;-59
2024/02/11 05:01:20;;;;;;;50.93;48.90;;;20.80;61.70;;;;;;5044058;28;20472;-61
2024/02/11 05:03:47;;;;;;;50.77;48.70;;;20.80;61.70;;;;;;5043742;28;20502;-61
2024/02/11 05:06:18;;;;;;;51.37;49.17;;;20.80;61.70;;;;;;5040408;28;20448;-59
2024/02/11 05:08:46;;;;;;;51.73;49.63;;;20.90;61.90;;;;;;5048892;28;20464;-61
2024/02/11 05:11:13;;;;;;;52.03;49.93;;;20.80;61.70;;;;;;5032811;28;20515;-62
2024/02/11 05:13:43;;;;;;;54.77;52.17;;;20.80;61.70;;;;;;5040494;28;20527;-60
2024/02/11 05:16:14;;;;;;;55.50;53.13;;;20.80;61.70;;;;;;5043361;28;20485;-58
2024/02/11 05:18:43;;;;;;;54.27;52.07;;;20.80;61.70;;;;;;5043470;28;20467;-59
2024/02/11 05:21:10;;;;;;;56.63;54.33;;;20.80;61.70;;;;;;5040225;28;20437;-60
2024/02/11 05:23:37;;;;;;;56.70;54.40;;;20.80;61.70;;;;;;5040333;28;20463;-61
2024/02/11 05:26:05;;;;;;;58.27;55.87;;;20.80;61.70;;;;;;5042629;28;20480;-61
2024/02/11 05:28:35;;;;;;;57.93;55.63;;;20.80;61.80;;;;;;5043239;28;20574;-62
2024/02/11 05:31:02;;;;;;;54.57;52.27;;;20.80;61.80;;;;;;5041022;28;20449;-59
2024/02/11 05:33:31;;;;;;;54.40;52.20;;;20.80;61.80;;;;;;5039444;28;20481;-61
2024/02/11 05:35:58;;;;;;;54.80;52.50;;;20.80;61.90;;;;;;5041579;28;20449;-62
2024/02/11 05:38:26;;;;;;;54.70;52.50;;;20.80;61.80;;;;;;5043294;28;20472;-61
2024/02/11 05:40:56;;;;;;;55.97;53.77;;;20.80;61.80;;;;;;5043231;28;20811;-61
2024/02/11 05:43:23;;;;;;;56.27;53.97;;;20.80;61.80;;;;;;5043238;28;20432;-61
2024/02/11 05:45:50;;;;;;;53.13;50.80;;;20.80;61.70;;;;;;5042578;28;20494;-61
2024/02/11 05:48:17;;;;;;;52.27;50.17;;;20.80;61.70;;;;;;5039518;28;20983;-61
2024/02/11 05:50:47;;;;;;;54.77;52.47;;;20.80;61.70;;;;;;5039651;28;20469;-61
2024/02/11 05:53:14;;;;;;;56.47;54.17;;;20.80;61.60;;;;;;5031579;28;20547;-61
2024/02/11 05:55:40;;;;;;;54.13;51.93;;;20.80;61.60;;;;;;5039740;28;20473;-61
2024/02/11 05:58:07;;;;;;;52.67;50.57;;;20.80;61.50;;;;;;5042164;28;20495;-61
2024/02/11 06:00:36;;;;;;;57.23;54.83;;;20.80;61.60;;;;;;5043036;28;20468;-61
2024/02/11 06:03:03;;;;;;;64.97;62.27;;;20.80;61.50;;;;;;5040864;28;20523;-60
2024/02/11 06:05:30;;;;;;;62.87;60.30;;;20.80;61.30;;;;;;5039527;28;20472;-61
2024/02/11 06:08:00;;;;;;;62.63;60.13;;;20.70;61.10;;;;;;5040565;28;20473;-62
2024/02/11 06:10:29;;;;;;;61.37;58.87;;;20.80;61.20;;;;;;5043031;28;20500;-58
2024/02/11 06:12:57;;;;;;;57.23;54.93;;;20.70;61.20;;;;;;5042947;28;20542;-61
2024/02/11 06:15:25;;;;;;;54.60;52.37;;;20.70;61.20;;;;;;5043070;28;20436;-60
2024/02/11 06:17:54;;;;;;;61.10;58.60;;;20.70;61.10;;;;;;5042114;28;20498;-59
2024/02/11 06:20:21;;;;;;;60.67;58.17;;;20.70;61.10;;;;;;5039593;28;20532;-61
2024/02/11 06:22:50;;;;;;;59.00;56.60;;;20.70;61.10;;;;;;5039763;28;20472;-59
2024/02/11 06:25:20;;;;;;;64.40;61.80;;;20.70;61.10;;;;;;5043740;28;20444;-60
2024/02/11 06:27:48;;;;;;;52.40;50.30;;;20.70;61.10;;;;;;5042992;28;20491;-61
2024/02/11 06:30:15;;;;;;;56.63;54.33;;;20.70;61.10;;;;;;5039522;28;20825;-61
2024/02/11 06:32:44;;;;;;;53.73;51.43;;;20.70;61.00;;;;;;5039169;28;20508;-62
2024/02/11 06:35:11;;;;;;;54.90;52.63;;;20.70;61.00;;;;;;5034067;28;20443;-61
2024/02/11 06:37:38;;;;;;;55.60;53.30;;;20.70;60.90;;;;;;5042873;28;20476;-62
2024/02/11 06:40:09;;;;;;;54.30;52.10;;;20.70;60.90;;;;;;5040755;28;20470;-61
2024/02/11 06:42:37;;;;;;;54.07;51.87;;;20.70;60.90;;;;;;5039423;28;20464;-61
2024/02/11 06:45:08;;;;;;;52.00;49.90;;;20.70;60.80;;;;;;5043310;28;20449;-61
2024/02/11 06:47:36;;;;;;;61.93;59.33;;;20.70;60.70;;;;;;5043309;28;20437;-62
2024/02/11 06:50:03;;;;;;;66.10;63.40;;;20.70;60.80;;;;;;5044721;28;20472;-59
2024/02/11 06:52:30;;;;;;;68.17;65.40;;;20.60;60.60;;;;;;5046386;28;20971;-62
2024/02/11 06:54:57;;;;;;;53.10;50.90;;;20.60;60.60;;;;;;5045408;28;20472;-60
2024/02/11 06:57:24;;;;;;;54.17;51.97;;;20.60;61.40;;;;;;5042879;28;20468;-61
2024/02/11 06:59:52;;;;;;;54.90;52.70;;;20.60;60.60;;;;;;5042722;28;20504;-60
2024/02/11 07:02:20;;;;;;;56.27;53.70;;;20.60;60.50;;;;;;5046026;28;20436;-61
2024/02/11 07:04:47;;;;;;;56.80;54.50;;;20.60;60.60;;;;;;5046044;28;20505;-61
2024/02/11 07:07:14;;;;;;;52.87;50.67;;;20.60;60.50;;;;;;5046081;28;20468;-62
2024/02/11 07:09:42;;;;;;;51.60;49.50;;;20.60;60.50;;;;;;5046315;28;20488;-62
2024/02/11 07:12:09;;;;;;;54.60;52.40;;;20.60;60.50;;;;;;5043971;28;20818;-61
2024/02/11 07:14:36;;;;;;;57.07;54.80;;;20.60;60.50;;;;;;5048904;28;20454;-61
2024/02/11 07:17:04;;;;;;;56.77;54.47;;;20.60;60.50;;;;;;5044372;28;20444;-61
2024/02/11 07:19:33;;;;;;;57.90;55.60;;;20.60;60.50;;;;;;5042594;28;20530;-61
2024/02/11 07:22:01;;;;;;;57.83;55.43;;;20.60;60.50;;;;;;5043501;28;20796;-61
2024/02/11 07:24:28;;;;;;;55.80;53.40;;;20.60;60.50;;;;;;5046027;28;20498;-61
2024/02/11 07:26:55;;;;;;;52.37;50.27;;;20.60;60.50;;;;;;5045230;28;20451;-61
2024/02/11 07:29:25;;;;;;;54.90;52.60;;;20.60;60.50;;;;;;5042260;28;20572;-61
2024/02/11 07:31:52;;;;;;;57.63;55.33;;;20.60;60.60;;;;;;5042173;28;21137;-60
2024/02/11 07:34:20;;;;;;;58.60;56.30;;;20.60;60.50;;;;;;5021471;28;21027;-60
2024/02/11 07:36:47;;;;;;;55.50;53.30;;;20.60;60.50;;;;;;5045682;28;21002;-62
2024/02/11 07:39:15;;;;;;;55.73;53.53;;;20.60;60.50;;;;;;5042415;28;20504;-61
2024/02/11 07:41:43;;;;;;;57.07;54.67;;;20.60;60.50;;;;;;5042571;28;20477;-64
2024/02/11 07:44:12;;;;;;;54.40;52.10;;;20.60;60.90;;;;;;5044643;28;20444;-64
2024/02/11 07:46:39;;;;;;;40.47;38.67;;;20.50;59.80;;;;;;5044651;28;20535;-65
2024/02/11 07:49:06;;;;;;;43.93;42.20;;;20.50;59.40;;;;;;5037195;28;20658;-69
2024/02/11 07:51:36;;;;;;;43.13;41.33;;;20.50;61.10;;;;;;5045394;28;20472;-65
2024/02/11 07:54:03;;;;;;;40.60;38.90;;;20.60;60.40;;;;;;5043460;28;20480;-65
2024/02/11 07:56:31;;;;;;;40.47;38.80;;;20.60;61.50;;;;;;5041059;28;20469;-65
2024/02/11 07:58:58;;;;;;;41.43;39.83;;;20.60;61.70;;;;;;5042301;28;20487;-66
2024/02/11 08:01:25;;;;;;;39.83;38.23;;;20.60;61.90;;;;;;5044909;28;20479;-65
2024/02/11 08:03:53;;;;;;;39.67;38.07;;;20.60;61.70;;;;;;5045024;28;20432;-65
2024/02/11 08:06:20;;;;;;;40.00;38.43;;;20.60;61.80;;;;;;5033561;28;20450;-65
2024/02/11 08:08:48;;;;;;;40.17;38.57;;;20.60;61.90;;;;;;5041327;28;20480;-65
2024/02/11 08:11:15;;;;;;;40.23;38.63;;;20.60;62.10;;;;;;5044277;28;20499;-65
2024/02/11 08:13:42;;;;;;;40.00;38.30;;;20.60;62.00;;;;;;5044698;28;20504;-65
2024/02/11 08:16:12;;;;;;;38.40;36.90;;;20.60;62.10;;;;;;5042807;28;20464;-68
2024/02/11 08:18:42;;;;;;;35.78;34.28;;;20.60;64.30;;;;;;5040063;28;20515;-63
2024/02/11 08:21:11;;;;;;;42.07;40.37;;;20.60;63.20;;;;;;5043590;28;20202;-63
2024/02/11 08:23:40;;;;;;;41.57;39.87;;;20.70;62.20;;;;;;5045797;28;20437;-63
2024/02/11 08:26:26;;;;;;;42.37;40.47;;;20.80;61.80;;;;;;5043196;28;20828;-62
2024/02/11 08:28:59;;;;;;;40.33;38.63;;;20.80;61.70;;;;;;5041065;28;20526;-64
2024/02/11 08:31:28;;;;;;;42.03;40.13;;;20.80;61.70;;;;;;5034924;28;20784;-64
2024/02/11 08:33:57;;;;;;;40.43;38.63;;;20.80;62.30;;;;;;5040975;28;20539;-66
2024/02/11 08:36:25;;;;;;;36.87;35.20;;;20.80;62.30;;;;;;5044129;28;20443;-64
2024/02/11 08:38:52;;;;;;;38.40;36.80;;;20.80;62.60;;;;;;5044370;28;20467;-64
2024/02/11 08:41:19;;;;;;;38.20;36.50;;;20.80;63.00;;;;;;5048852;28;20884;-63
2024/02/11 08:43:54;;;;;;;41.73;40.03;;;20.80;62.80;;;;;;5040819;28;20441;-67
2024/02/11 08:46:21;;;;;;;40.43;38.73;;;20.80;62.30;;;;;;5033231;28;20491;-65
2024/02/11 08:48:49;;;;;;;38.70;37.10;;;20.80;62.40;;;;;;5047474;28;20488;-65
2024/02/11 08:51:20;;;;;;;42.83;40.93;;;20.80;62.50;;;;;;5041297;28;20449;-66
2024/02/11 08:53:47;;;;;;;41.70;40.00;;;20.80;62.50;;;;;;5040734;28;20559;-67
2024/02/11 08:56:15;;;;;;;39.70;37.87;;;20.80;62.40;;;;;;5043357;28;20873;-68
2024/02/11 08:58:44;;;;;;;41.53;39.53;;;20.80;62.40;;;;;;5046483;28;20460;-68
2024/02/11 09:01:13;;;;;;;42.80;41.10;;;20.80;62.30;;;;;;5041717;28;20443;-68
2024/02/11 09:03:40;;;;;;;42.40;40.60;;;20.80;62.20;;;;;;5040569;28;20468;-68
2024/02/11 09:06:07;;;;;;;42.30;40.53;;;20.80;62.10;;;;;;5041854;28;20979;-68
2024/02/11 09:08:34;;;;;;;43.53;41.50;;;20.80;62.00;;;;;;5044077;28;20522;-63
2024/02/11 09:11:03;;;;;;;39.40;37.80;;;20.80;61.90;;;;;;5025238;28;20440;-66
2024/02/11 09:13:33;;;;;;;39.50;37.87;;;20.80;61.90;;;;;;5040276;28;20481;-64
2024/02/11 09:16:00;;;;;;;40.10;38.20;;;20.80;61.80;;;;;;5048742;28;20468;-64
2024/02/11 09:18:28;;;;;;;35.80;34.20;;;20.90;61.70;;;;;;5043054;28;20462;-66
2024/02/11 09:20:55;;;;;;;39.27;37.57;;;20.90;61.90;;;;;;5043666;28;20240;-66
2024/02/11 09:23:22;;;;;;;38.50;36.90;;;21.00;61.60;;;;;;5032083;28;20469;-66
2024/02/11 09:25:49;;;;;;;39.20;37.40;;;21.00;61.20;;;;;;5040211;28;20477;-68
2024/02/11 09:28:16;;;;;;;35.77;34.37;;;21.00;61.50;;;;;;5042584;28;20495;-67
2024/02/11 09:30:43;;;;;;;35.77;34.27;;;21.00;61.60;;;;;;5043476;28;20483;-69
2024/02/11 09:33:10;;;;;;;37.50;36.00;;;21.00;61.40;;;;;;5041503;28;20484;-68
2024/02/11 09:35:41;;;;;;;37.77;36.07;;;21.10;61.40;;;;;;5040022;28;20521;-66
2024/02/11 09:38:08;;;;;;;38.57;36.97;;;21.10;61.30;;;;;;5041558;28;20519;-66
2024/02/11 09:40:35;;;;;;;37.80;36.30;;;21.10;61.10;;;;;;5043471;28;20468;-66
2024/02/11 09:43:05;;;;;;;37.47;35.97;;;21.10;61.10;;;;;;5042214;28;20446;-66
2024/02/11 09:45:33;;;;;;;38.70;37.10;;;21.10;60.90;;;;;;5039897;28;20472;-66
2024/02/11 09:48:01;;;;;;;38.03;36.43;;;21.10;60.90;;;;;;5047234;28;20468;-66
2024/02/11 09:50:30;;;;;;;38.20;36.50;;;21.20;61.20;;;;;;5039790;28;20448;-67
2024/02/11 09:53:01;;;;;;;39.30;37.70;;;21.20;61.00;;;;;;5039713;28;20553;-66
2024/02/11 09:55:32;;;;;;;39.30;37.70;;;21.10;60.60;;;;;;5032276;28;20499;-66
2024/02/11 09:57:59;;;;;;;37.40;35.90;;;21.20;60.60;;;;;;5029797;28;20448;-67
2024/02/11 10:00:26;;;;;;;38.43;36.83;;;21.20;60.80;;;;;;5039800;28;20464;-67
2024/02/11 10:02:57;;;;;;;37.30;35.70;;;21.20;60.90;;;;;;5039632;28;20842;-62
2024/02/11 10:05:27;;;;;;;36.73;34.87;;;21.20;60.50;;;;;;5031663;28;20930;-67
2024/02/11 10:07:56;;;;;;;38.30;36.50;;;21.20;60.10;;;;;;5046849;28;20444;-68
2024/02/11 10:10:25;;;;;;;38.17;36.57;;;21.20;60.40;;;;;;5039669;28;21002;-68
2024/02/11 10:12:53;;;;;;;37.87;36.30;;;21.30;60.50;;;;;;5039437;28;20437;-69
2024/02/11 10:15:20;;;;;;;37.70;36.20;;;21.30;60.60;;;;;;5042380;28;20460;-68
2024/02/11 10:17:48;;;;;;;39.00;37.33;;;21.30;60.80;;;;;;5043567;28;20916;-69
2024/02/11 10:20:17;;;;;;;37.70;36.10;;;21.30;61.40;;;;;;5044756;28;20448;-67
2024/02/11 10:22:44;;;;;;;37.80;36.20;;;21.30;60.50;;;;;;5043579;28;20544;-67
2024/02/11 10:25:13;;;;;;;39.90;38.20;;;21.30;60.10;;;;;;5045077;28;20531;-69
2024/02/11 10:27:42;;;;;;;37.33;35.73;;;21.30;60.30;;;;;;5029337;28;20958;-68
2024/02/11 10:30:10;;;;;;;37.90;36.30;;;21.30;60.50;;;;;;5045399;28;20472;-67
2024/02/11 10:32:37;;;;;;;37.03;35.43;;;21.30;60.40;;;;;;5043422;28;20434;-67
2024/02/11 10:35:05;;;;;;;40.07;38.37;;;21.40;60.60;;;;;;5043798;28;20476;-64
2024/02/11 10:37:41;;;;;;;41.37;39.70;;;21.40;60.50;;;;;;5046854;28;20811;-68
2024/02/11 10:40:11;;;;;;;39.83;38.23;;;21.40;60.70;;;;;;5048361;28;20463;-66
2024/02/11 10:42:40;;;;;;;39.33;37.37;;;21.40;60.90;;;;;;5043193;28;20445;-67
2024/02/11 10:45:11;;;;;;;39.40;37.70;;;21.40;61.20;;;;;;5044091;28;20531;-66
2024/02/11 10:47:38;;;;;;;39.07;37.07;;;21.40;60.80;;;;;;5046660;28;20444;-66
2024/02/11 10:50:06;;;;;;;37.87;36.27;;;21.40;60.70;;;;;;5045575;28;20804;-67
2024/02/11 10:52:39;;;;;;;39.50;37.70;;;21.40;60.80;;;;;;5043007;28;20469;-67
2024/02/11 10:55:10;;;;;;;38.70;37.00;;;21.30;60.80;;;;;;5043634;28;20484;-68
2024/02/11 10:57:45;;;;;;;41.63;39.93;;;21.40;61.10;;;;;;5046576;28;20510;-64
2024/02/11 11:00:18;;;;;;;40.20;38.50;;;21.40;61.00;;;;;;5044885;28;20518;-67
2024/02/11 11:02:49;;;;;;;39.43;37.67;;;21.50;60.80;;;;;;5043175;28;20983;-64
2024/02/11 11:05:20;;;;;;;37.93;35.90;;;21.50;60.60;;;;;;5044923;28;20447;-65
2024/02/11 11:07:49;;;;;;;40.17;38.27;;;21.50;60.70;;;;;;5046289;28;20440;-65
2024/02/11 11:10:19;;;;;;;41.03;39.23;;;21.50;60.50;;;;;;5043851;28;20966;-72
2024/02/11 11:12:47;;;;;;;42.07;40.37;;;21.50;60.50;;;;;;5042871;28;20812;-62
2024/02/11 11:15:22;;;;;;;41.77;39.67;;;21.50;60.50;;;;;;5044183;28;20480;-62
2024/02/11 11:17:49;;;;;;;43.40;41.60;;;21.50;60.00;;;;;;5046063;28;20475;-63
2024/02/11 11:20:19;;;;;;;37.57;35.80;;;21.50;60.10;;;;;;5043803;28;20444;-65
2024/02/11 11:22:50;;;;;;;37.40;35.80;;;21.60;60.30;;;;;;5042471;28;20863;-64
2024/02/11 11:25:20;;;;;;;35.97;34.47;;;21.50;60.30;;;;;;5044454;28;20448;-65
2024/02/11 11:27:48;;;;;;;36.00;34.53;;;21.50;60.30;;;;;;5045852;28;21005;-66
2024/02/11 11:30:17;;;;;;;35.10;33.70;;;21.50;60.40;;;;;;5044371;28;20823;-64
2024/02/11 11:32:46;;;;;;;38.90;37.20;;;21.60;60.20;;;;;;5045704;28;20432;-65
2024/02/11 11:35:15;;;;;;;40.50;38.80;;;21.60;60.30;;;;;;5043906;28;20484;-65
2024/02/11 11:37:51;;;;;;;39.00;37.30;;;21.60;60.10;;;;;;5042443;28;20476;-66
2024/02/11 11:40:21;;;;;;;37.37;35.80;;;21.60;60.20;;;;;;5026561;28;20459;-65
2024/02/11 11:42:52;;;;;;;37.20;35.30;;;21.60;60.10;;;;;;5045434;28;20870;-65
2024/02/11 11:45:21;;;;;;;36.80;34.70;;;21.60;60.00;;;;;;5042849;28;20440;-65
2024/02/11 11:47:50;;;;;;;36.80;35.30;;;21.60;59.90;;;;;;5042209;28;20488;-64
2024/02/11 11:50:19;;;;;;;36.27;34.77;;;21.60;60.60;;;;;;5044053;28;20842;-63
2024/02/11 11:52:47;;;;;;;38.67;37.17;;;21.60;59.70;;;;;;5045279;28;20441;-63
2024/02/11 11:55:14;;;;;;;37.30;35.60;;;21.60;59.50;;;;;;5043547;28;20482;-63
2024/02/11 11:57:41;;;;;;;36.07;34.37;;;21.60;59.50;;;;;;5042023;28;20447;-65
2024/02/11 12:00:12;;;;;;;34.93;33.33;;;21.60;59.60;;;;;;5042364;28;20503;-64
2024/02/11 12:02:40;;;;;;;36.00;34.53;;;21.60;59.70;;;;;;5045136;28;20443;-63
2024/02/11 12:05:09;;;;;;;37.00;35.30;;;21.60;59.50;;;;;;5044442;28;20918;-65
2024/02/11 12:07:35;;;;;;;38.37;36.87;;;21.60;59.30;;;;;;5041785;28;20446;-64
2024/02/11 12:10:04;;;;;;;38.10;36.50;;;21.60;59.20;;;;;;5041475;28;20495;-63
2024/02/11 12:12:32;;;;;;;38.60;37.00;;;21.60;59.10;;;;;;5037754;28;20447;-65
2024/02/11 12:14:59;;;;;;;40.00;38.30;;;21.70;59.20;;;;;;5045082;28;20479;-65
2024/02/11 12:17:27;;;;;;;38.80;37.20;;;21.60;59.10;;;;;;5041846;28;20476;-65
2024/02/11 12:19:57;;;;;;;39.40;37.80;;;21.60;59.10;;;;;;5041462;28;20489;-65
2024/02/11 12:22:25;;;;;;;39.43;37.73;;;21.60;59.60;;;;;;5044186;28;20451;-63
2024/02/11 12:24:51;;;;;;;39.03;37.43;;;21.70;59.60;;;;;;5044788;28;20443;-63
2024/02/11 12:27:18;;;;;;;38.57;36.73;;;21.70;59.40;;;;;;5043090;28;20859;-63
2024/02/11 12:29:54;;;;;;;37.50;36.00;;;21.70;59.40;;;;;;5041254;28;20500;-63
2024/02/11 12:32:22;;;;;;;39.20;37.40;;;21.70;59.30;;;;;;5043290;28;20555;-64